Time;durP1;ratioP1;P1;durP2;ratioP2;P2;SDS_P1;SDS_P2;PMS_P1;PMS_P2;Temp;Humidity;BMP_temperature;BMP_pressure;BME280_temperature;BME280_humidity;BME280_pressure;Samples;Min_cycle;Max_cycle;Signal;HPM_P1;HPM_P2
2021/11/01 00:00:31;;;;;;;;;2.00;0.75;;;;;13.97;65.72;99797.03;5063014;28;45384;-70
2021/11/01 00:02:56;;;;;;;;;3.00;2.00;;;;;13.96;65.92;99789.91;5062625;28;45380;-70
2021/11/01 00:05:23;;;;;;;;;2.00;1.00;;;;;13.94;65.93;99786.47;5062556;28;45386;-70
2021/11/01 00:07:48;;;;;;;;;2.75;1.75;;;;;13.98;66.08;99789.81;5062284;28;46051;-70
2021/11/01 00:10:14;;;;;;;;;3.00;2.50;;;;;13.96;65.55;99792.59;5062543;28;45348;-70
2021/11/01 00:12:40;;;;;;;;;1.00;1.00;;;;;13.92;65.92;99793.75;5062720;28;45277;-70
2021/11/01 00:15:07;;;;;;;;;2.25;1.00;;;;;13.91;65.78;99786.66;5062465;28;45215;-70
2021/11/01 00:17:33;;;;;;;;;3.50;2.25;;;;;13.88;65.89;99787.72;5060771;28;48325;-70
2021/11/01 00:19:58;;;;;;;;;4.25;2.50;;;;;13.85;66.00;99779.88;5061386;28;45473;-70
2021/11/01 00:22:24;;;;;;;;;4.25;1.75;;;;;13.85;66.26;99782.53;5061261;28;45279;-70
2021/11/01 00:24:50;;;;;;;;;2.00;2.00;;;;;13.85;65.94;99779.00;5062430;28;45409;-70
2021/11/01 00:27:16;;;;;;;;;1.00;1.00;;;;;13.90;66.02;99782.28;5062152;28;46142;-70
2021/11/01 00:29:42;;;;;;;;;2.25;2.25;;;;;13.87;65.69;99779.78;5062552;28;45354;-70
2021/11/01 00:32:08;;;;;;;;;1.75;1.00;;;;;13.82;66.17;99769.31;5059789;28;45323;-70
2021/11/01 00:34:34;;;;;;;;;3.50;2.00;;;;;13.76;65.94;99763.47;5062667;28;45563;-70
2021/11/01 00:36:59;;;;;;;;;2.50;2.25;;;;;13.80;66.18;99775.72;5062289;28;45312;-70
2021/11/01 00:39:25;;;;;;;;;3.50;2.25;;;;;13.77;66.33;99767.88;5062136;28;45233;-70
2021/11/01 00:41:50;;;;;;;;;2.25;1.00;;;;;13.70;66.14;99765.56;5062453;28;45192;-70
2021/11/01 00:44:16;;;;;;;;;1.75;1.75;;;;;13.69;66.28;99754.94;5062459;28;45203;-70
2021/11/01 00:46:41;;;;;;;;;4.00;2.00;;;;;13.73;66.29;99761.81;5061926;28;45246;-70
2021/11/01 00:49:07;;;;;;;;;3.00;2.00;;;;;13.69;66.25;99746.88;5061075;28;45420;-70
2021/11/01 00:51:37;;;;;;;;;2.00;2.00;;;;;13.73;66.16;99753.78;5062129;28;45213;-70
2021/11/01 00:54:03;;;;;;;;;4.00;2.00;;;;;13.74;66.02;99744.78;5057398;28;45294;-70
2021/11/01 00:56:28;;;;;;;;;4.75;1.25;;;;;13.69;66.38;99744.22;5056892;28;45379;-70
2021/11/01 00:58:54;;;;;;;;;3.00;1.00;;;;;13.65;66.19;99743.53;5060977;28;45192;-70
2021/11/01 01:01:19;;;;;;;;;3.00;1.00;;;;;13.68;66.01;99735.31;5060636;28;45488;-70
2021/11/01 01:03:45;;;;;;;;;3.25;1.25;;;;;13.68;66.31;99735.31;5061966;28;45188;-70
2021/11/01 01:06:11;;;;;;;;;2.00;1.00;;;;;13.65;66.21;99727.44;5061981;28;46404;-70
2021/11/01 01:08:37;;;;;;;;;2.00;2.00;;;;;13.64;66.18;99730.22;5062143;28;45294;-70
2021/11/01 01:11:02;;;;;;;;;2.00;1.00;;;;;13.70;66.27;99733.38;5061765;28;45244;-70
2021/11/01 01:13:34;;;;;;;;;1.00;1.00;;;;;13.70;66.18;99736.06;5061975;28;45496;-70
2021/11/01 01:18:43;;;;;;;;;3.50;2.00;;;;;13.64;66.12;99724.84;5061383;28;45518;-70
2021/11/01 01:23:53;;;;;;;;;2.50;1.00;;;;;13.61;65.80;99714.31;5061446;28;45432;-70
2021/11/01 01:26:19;;;;;;;;;2.25;1.25;;;;;13.58;66.47;99715.38;5059440;28;47261;-70
2021/11/01 01:28:45;;;;;;;;;3.00;1.00;;;;;13.58;66.26;99715.38;5061499;28;45294;-70
2021/11/01 01:31:11;;;;;;;;;2.25;1.75;;;;;13.55;66.63;99714.69;5061645;28;45227;-70
2021/11/01 01:33:37;;;;;;;;;6.50;2.00;;;;;13.55;66.58;99710.19;5061353;28;45219;-70
2021/11/01 01:36:03;;;;;;;;;4.00;2.50;;;;;13.53;66.76;99721.00;5061574;28;45384;-70
2021/11/01 01:38:29;;;;;;;;;2.25;2.00;;;;;13.56;66.31;99711.91;5059440;28;45885;-70
2021/11/01 01:40:54;;;;;;;;;4.25;1.00;;;;;13.52;66.50;99708.56;5061336;28;45302;-70
2021/11/01 01:43:20;;;;;;;;;4.75;3.25;;;;;13.57;66.39;99718.16;5060944;28;45313;-70
2021/11/01 01:45:46;;;;;;;;;2.50;0.50;;;;;13.53;66.32;99712.09;5060748;28;45305;-70
2021/11/01 01:48:13;;;;;;;;;1.00;1.00;;;;;13.47;66.30;99704.44;5060721;28;45413;-70
2021/11/01 01:50:40;;;;;;;;;1.00;1.00;;;;;13.48;66.53;99715.06;5061039;28;45437;-70
2021/11/01 01:53:06;;;;;;;;;1.75;1.75;;;;;13.50;66.22;99707.78;5061272;28;45395;-70
2021/11/01 01:55:31;;;;;;;;;2.25;1.00;;;;;13.47;66.24;99712.47;5060627;28;46200;-70
2021/11/01 01:57:57;;;;;;;;;2.00;1.00;;;;;13.42;66.34;99709.22;5061278;28;45385;-70
2021/11/01 02:03:08;;;;;;;;;3.75;1.00;;;;;13.40;66.59;99701.28;5060770;28;45338;-70
2021/11/01 02:06:06;;;;;;;;;1.00;1.00;;;;;13.43;66.42;99709.13;5060842;28;46210;-71
2021/11/01 02:08:57;;;;;;;;;1.75;1.00;;;;;13.46;66.43;99702.69;5060331;28;45633;-70
2021/11/01 02:11:32;;;;;;;;;2.00;1.00;;;;;13.42;65.95;99694.00;5060870;28;45263;-70
2021/11/01 02:14:00;;;;;;;;;1.00;1.00;;;;;13.37;66.34;99692.56;5071456;28;45295;-70
2021/11/01 02:16:32;;;;;;;;;3.00;1.75;;;;;13.41;66.44;99696.75;5060442;28;45319;-70
2021/11/01 02:19:02;;;;;;;;;3.00;1.75;;;;;13.40;66.34;99684.31;5060474;28;45419;-70
2021/11/01 02:21:45;;;;;;;;;1.25;1.00;;;;;13.37;66.19;99685.38;5059180;28;45322;-71
2021/11/01 02:24:17;;;;;;;;;1.75;0.50;;;;;13.34;66.36;99681.03;5059433;28;45448;-70
2021/11/01 02:26:43;;;;;;;;;0.00;0.00;;;;;13.33;66.45;99686.50;5051311;28;48153;-70
2021/11/01 02:29:10;;;;;;;;;4.00;2.00;;;;;13.37;66.35;99688.06;5054396;28;45394;-70
2021/11/01 02:31:37;;;;;;;;;2.75;1.00;;;;;13.33;66.22;99691.84;5050819;28;45325;-70
2021/11/01 02:34:04;;;;;;;;;3.00;0.25;;;;;13.33;66.24;99691.84;5056007;28;45487;-71
2021/11/01 02:36:30;;;;;;;;;2.00;2.00;;;;;13.32;66.37;99691.00;5060700;28;45540;-70
2021/11/01 02:38:58;;;;;;;;;2.50;1.50;;;;;13.38;66.23;99697.84;5059372;28;45405;-71
2021/11/01 02:41:26;;;;;;;;;1.75;1.00;;;;;13.40;66.41;99695.03;5060681;28;45418;-71
2021/11/01 02:43:57;;;;;;;;;0.75;0.75;;;;;13.40;66.25;99705.75;5060429;28;45317;-70
2021/11/01 02:46:25;;;;;;;;;2.75;1.00;;;;;13.37;66.01;99698.78;5060237;28;45404;-70
2021/11/01 02:48:51;;;;;;;;;1.25;0.00;;;;;13.39;65.97;99698.69;5060292;28;45434;-70
2021/11/01 02:51:18;;;;;;;;;4.00;1.00;;;;;13.40;66.16;99703.06;5060520;28;45396;-70
2021/11/01 02:53:46;;;;;;;;;2.50;2.50;;;;;13.42;66.27;99703.88;5060163;28;45249;-70
2021/11/01 02:56:12;;;;;;;;;2.75;1.00;;;;;13.42;66.14;99698.50;5059517;28;46076;-70
2021/11/01 02:58:40;;;;;;;;;1.75;1.75;;;;;13.38;66.26;99691.59;5060161;28;45267;-71
2021/11/01 03:01:10;;;;;;;;;4.00;1.50;;;;;13.42;66.07;99702.03;5060300;28;45333;-70
2021/11/01 03:03:37;;;;;;;;;1.00;1.00;;;;;13.38;66.05;99697.84;5058347;28;45548;-70
2021/11/01 03:06:04;;;;;;;;;2.00;1.00;;;;;13.37;65.92;99703.28;5060146;28;45333;-70
2021/11/01 03:08:32;;;;;;;;;1.75;1.00;;;;;13.32;66.03;99706.22;5060149;28;45415;-70
2021/11/01 03:10:58;;;;;;;;;2.25;1.00;;;;;13.27;66.20;99701.09;5058146;28;45467;-70
2021/11/01 03:13:26;;;;;;;;;0.75;0.50;;;;;13.27;65.76;99693.06;5059823;28;45533;-70
2021/11/01 03:15:54;;;;;;;;;1.00;1.00;;;;;13.22;66.42;99689.81;5059800;28;45243;-70
2021/11/01 03:18:22;;;;;;;;;1.75;0.50;;;;;13.24;66.02;99690.56;5059554;28;45620;-70
2021/11/01 03:20:48;;;;;;;;;2.50;1.00;;;;;13.21;65.67;99700.63;5060063;28;45244;-70
2021/11/01 03:23:20;;;;;;;;;3.75;1.00;;;;;13.21;66.18;99704.16;5061253;28;45454;-70
2021/11/01 03:25:51;;;;;;;;;1.00;0.50;;;;;13.20;66.16;99701.56;5058619;28;45652;-70
2021/11/01 03:28:18;;;;;;;;;2.75;1.25;;;;;13.21;66.35;99700.63;5059888;28;45203;-70
2021/11/01 03:30:46;;;;;;;;;1.25;1.25;;;;;13.24;66.46;99706.66;5057198;28;45552;-70
2021/11/01 03:33:14;;;;;;;;;6.00;1.00;;;;;13.25;66.24;99712.88;5049373;28;45348;-70
2021/11/01 03:35:42;;;;;;;;;2.75;1.25;;;;;13.23;65.85;99704.06;5056601;28;45514;-70
2021/11/01 03:38:10;;;;;;;;;1.50;1.50;;;;;13.19;66.01;99700.69;5049870;28;45321;-70
2021/11/01 03:40:37;;;;;;;;;2.25;0.00;;;;;13.23;66.00;99726.38;5059309;28;45309;-70
2021/11/01 03:43:05;;;;;;;;;2.00;2.00;;;;;13.23;65.92;99726.38;5059194;28;45314;-70
2021/11/01 03:45:34;;;;;;;;;0.75;0.75;;;;;13.22;66.02;99727.31;5060368;28;48138;-70
2021/11/01 03:48:05;;;;;;;;;1.75;0.75;;;;;13.24;66.01;99728.09;5058702;28;45575;-70
2021/11/01 03:52:57;;;;;;;;;1.25;0.00;;;;;13.19;65.97;99716.78;5059633;28;45233;-70
2021/11/01 03:55:28;;;;;;;;;1.75;1.00;;;;;13.21;66.12;99725.59;5059138;28;45330;-70
2021/11/01 03:57:54;;;;;;;;;3.75;1.75;;;;;13.23;65.98;99723.69;5058196;28;45765;-70
2021/11/01 04:00:20;;;;;;;;;0.50;0.00;;;;;13.20;65.76;99729.22;5058330;28;45280;-70
2021/11/01 04:02:47;;;;;;;;;1.00;1.00;;;;;13.20;66.18;99734.59;5059207;28;45321;-70
2021/11/01 04:05:12;;;;;;;;;2.50;1.25;;;;;13.11;66.11;99716.38;5059316;28;45414;-70
2021/11/01 04:07:38;;;;;;;;;1.00;0.00;;;;;13.16;66.12;99720.53;5059428;28;45426;-70
2021/11/01 04:10:07;;;;;;;;;1.00;0.50;;;;;13.15;65.99;99723.28;5059362;28;45216;-70
2021/11/01 04:12:32;;;;;;;;;1.00;1.00;;;;;13.18;65.88;99739.19;5048847;28;45735;-70
2021/11/01 04:15:05;;;;;;;;;1.00;0.75;;;;;13.17;65.79;99742.81;5059127;28;46205;-70
2021/11/01 04:17:40;;;;;;;;;2.00;0.00;;;;;13.11;66.00;99732.44;5059122;28;45334;-70
2021/11/01 04:22:37;;;;;;;;;1.00;1.00;;;;;13.08;65.86;99729.94;5059474;28;45322;-70
2021/11/01 04:25:04;;;;;;;;;2.25;2.25;;;;;13.08;65.80;99737.97;5061788;28;46096;-70
2021/11/01 04:27:29;;;;;;;;;2.00;0.75;;;;;13.09;65.79;99745.06;5062192;28;45361;-70
2021/11/01 04:29:55;;;;;;;;;1.50;0.25;;;;;13.00;65.89;99732.22;5062927;28;45857;-70
2021/11/01 04:32:29;;;;;;;;;0.00;0.00;;;;;13.03;65.92;99746.31;5055434;28;45700;-70
2021/11/01 04:35:04;;;;;;;;;1.25;0.00;;;;;13.06;65.82;99746.09;5062620;28;45638;-70
2021/11/01 04:37:31;;;;;;;;;1.00;1.00;;;;;13.01;65.82;99745.50;5062409;28;45284;-70
2021/11/01 04:53:02;;;;;;;;;2.00;0.00;;;;;13.05;65.79;99739.03;5062247;28;45333;-70
2021/11/01 04:55:28;;;;;;;;;1.00;1.00;;;;;13.05;65.93;99730.16;5060617;28;47381;-70
2021/11/01 04:57:55;;;;;;;;;0.25;0.00;;;;;13.03;65.88;99730.25;5062258;28;45313;-70
2021/11/01 05:00:21;;;;;;;;;1.00;0.50;;;;;13.05;66.00;99736.38;5059035;28;45221;-70
2021/11/01 05:02:52;;;;;;;;;1.50;0.25;;;;;13.07;66.06;99742.47;5061689;28;45414;-70
2021/11/01 05:05:18;;;;;;;;;1.00;0.00;;;;;13.07;65.87;99736.28;5061987;28;46155;-70
2021/11/01 05:07:44;;;;;;;;;1.25;0.25;;;;;13.09;65.75;99745.06;5061332;28;45333;-70
2021/11/01 05:10:22;;;;;;;;;1.00;1.00;;;;;13.06;65.85;99724.66;5062024;28;45382;-70
2021/11/01 05:12:48;;;;;;;;;0.00;0.00;;;;;13.07;65.82;99737.13;5061970;28;45282;-70
2021/11/01 05:18:14;;;;;;;;;2.25;0.00;;;;;13.11;66.04;99740.47;5060852;28;45222;-70
2021/11/01 05:20:43;;;;;;;;;0.00;0.00;;;;;13.10;66.03;99736.09;5056596;28;45433;-70
2021/11/01 05:23:31;;;;;;;;;0.00;0.00;;;;;13.10;65.87;99744.13;5060132;28;45808;-70
2021/11/01 05:35:58;;;;;;;;;1.50;0.00;;;;;13.10;65.95;99736.09;5055059;28;46371;-70
2021/11/01 05:38:23;;;;;;;;;3.00;1.00;;;;;13.09;65.98;99735.22;5060379;28;45484;-70
2021/11/01 05:40:49;;;;;;;;;1.00;0.00;;;;;13.13;66.18;99743.94;5061136;28;45457;-70
2021/11/01 05:43:14;;;;;;;;;1.00;0.00;;;;;13.12;65.92;99745.75;5061380;28;45486;-70
2021/11/01 05:45:40;;;;;;;;;2.25;0.00;;;;;13.09;66.37;99745.94;5059722;28;45978;-70
2021/11/01 05:48:05;;;;;;;;;1.00;0.00;;;;;13.08;66.12;99741.53;5061039;28;45334;-70
2021/11/01 05:50:33;;;;;;;;;1.50;0.25;;;;;13.11;66.10;99751.19;5061486;28;45337;-70
2021/11/01 05:53:00;;;;;;;;;2.00;0.00;;;;;13.11;66.18;99759.25;5061333;28;45318;-70
2021/11/01 05:55:55;;;;;;;;;2.00;0.75;;;;;13.08;66.21;99748.69;5060188;28;45527;-70
2021/11/01 06:13:30;;;;;;;;;0.75;0.25;;;;;13.07;65.82;99779.13;5060894;28;45234;-70
2021/11/01 06:15:58;;;;;;;;;0.00;0.00;;;;;13.00;65.98;99775.94;5060137;28;46214;-70
2021/11/01 06:18:35;;;;;;;;;1.00;1.00;;;;;13.04;66.13;99779.31;5060514;28;45380;-70
2021/11/01 06:21:00;;;;;;;;;1.25;0.00;;;;;13.03;65.97;99788.28;5060402;28;45331;-70
2021/11/01 06:23:26;;;;;;;;;1.00;1.00;;;;;13.02;66.24;99787.44;5060605;28;45449;-70
2021/11/01 06:25:52;;;;;;;;;0.50;0.50;;;;;13.02;66.02;99784.75;5070754;28;47900;-70
2021/11/01 06:28:18;;;;;;;;;1.00;1.00;;;;;13.03;66.09;99783.81;5059888;28;45419;-70
2021/11/01 06:30:52;;;;;;;;;0.00;0.00;;;;;13.01;66.43;99783.00;5057587;28;45278;-70
2021/11/01 06:57:30;;;;;;;;;1.75;1.00;;;;;13.04;66.18;99800.75;5060160;28;45927;-70
2021/11/01 07:19:04;;;;;;;;;1.50;0.50;;;;;13.07;65.97;99804.09;5048126;28;45292;-72
2021/11/01 07:38:41;;;;;;;;;1.00;1.00;;;;;13.13;65.80;99813.59;5027972;28;45336;-74
2021/11/01 08:45:54;;;;;;;;;3.25;0.75;;;;;13.04;66.58;99838.25;5061987;28;45701;-73
2021/11/01 09:26:09;;;;;;;;;1.00;0.00;;;;;13.45;65.69;99833.22;5061513;28;45251;-71
2021/11/01 09:28:44;;;;;;;;;0.50;0.50;;;;;13.49;65.65;99829.38;5061747;28;45319;-69
2021/11/01 09:36:48;;;;;;;;;4.00;1.00;;;;;13.61;65.73;99843.03;5061563;28;45232;-69
2021/11/01 09:39:30;;;;;;;;;1.50;1.00;;;;;13.63;65.27;99831.25;5061300;28;46064;-70
2021/11/01 09:41:59;;;;;;;;;3.00;0.25;;;;;13.69;65.29;99835.38;5061334;28;45314;-71
2021/11/01 09:44:26;;;;;;;;;0.00;0.00;;;;;13.72;65.52;99840.56;5062285;28;45311;-70
2021/11/01 09:46:57;;;;;;;;;0.50;0.00;;;;;13.70;65.13;99837.13;5061137;28;45504;-70
2021/11/01 09:49:23;;;;;;;;;1.00;0.00;;;;;13.75;65.31;99837.72;5061189;28;46195;-70
2021/11/01 09:51:55;;;;;;;;;1.00;0.75;;;;;13.78;65.01;99842.00;5061122;28;45223;-70
2021/11/01 09:54:25;;;;;;;;;0.00;0.00;;;;;13.79;65.36;99833.88;5060143;28;45447;-70
2021/11/01 09:57:05;;;;;;;;;0.75;0.00;;;;;13.77;65.18;99829.56;5061117;28;45465;-70
2021/11/01 09:59:35;;;;;;;;;0.00;0.00;;;;;13.83;65.12;99830.06;5061257;28;46280;-73
2021/11/01 10:02:01;;;;;;;;;0.00;0.00;;;;;13.88;65.23;99829.75;5056270;28;45349;-70
2021/11/01 10:04:32;;;;;;;;;1.75;0.75;;;;;13.92;64.86;99820.59;5061208;28;45326;-69
2021/11/01 10:07:22;;;;;;;;;0.00;0.00;;;;;13.96;64.69;99824.78;5061329;28;45335;-72
2021/11/01 10:09:56;;;;;;;;;0.25;0.00;;;;;14.00;64.24;99829.03;5060739;28;46129;-72
2021/11/01 10:12:34;;;;;;;;;0.00;0.00;;;;;14.02;64.33;99828.94;5061203;28;45560;-72
2021/11/01 10:18:17;;;;;;;;;0.00;0.00;;;;;14.11;64.61;99835.56;5060839;28;45212;-70
2021/11/01 10:20:47;;;;;;;;;2.00;0.00;;;;;14.15;64.01;99840.66;5057772;28;46154;-70
2021/11/01 10:23:16;;;;;;;;;0.00;0.00;;;;;14.18;64.15;99834.22;5060968;28;45297;-69
2021/11/01 10:25:42;;;;;;;;;0.75;0.00;;;;;14.17;63.49;99829.81;5060614;28;45188;-69
2021/11/01 10:28:07;;;;;;;;;0.25;0.00;;;;;14.22;63.59;99831.25;5060968;28;45165;-70
2021/11/01 10:30:35;;;;;;;;;2.50;0.00;;;;;14.16;63.91;99815.53;5059405;28;46434;-70
2021/11/01 10:33:04;;;;;;;;;1.00;0.00;;;;;14.27;63.57;99833.66;5048734;28;45269;-70
2021/11/01 10:35:42;;;;;;;;;0.00;0.00;;;;;14.33;63.40;99838.63;5060684;28;45271;-69
2021/11/01 11:11:17;;;;;;;;;0.00;0.00;;;;;14.64;60.86;99796.44;5060199;28;45299;-70
2021/11/01 11:13:48;;;;;;;;;0.00;0.00;;;;;14.63;60.85;99786.66;5039986;28;45279;-69
2021/11/01 11:16:34;;;;;;;;;0.50;0.00;;;;;14.68;60.66;99797.13;5056090;28;45314;-68
2021/11/01 11:19:13;;;;;;;;;1.00;0.00;;;;;14.70;60.45;99789.81;5060223;28;45390;-70
2021/11/01 11:22:15;;;;;;;;;0.00;0.00;;;;;14.69;60.80;99780.91;5058774;28;45504;-70
2021/11/01 11:24:55;;;;;;;;;0.00;0.00;;;;;14.74;60.09;99788.66;5047136;28;46391;-69
2021/11/01 11:47:47;;;;;;;;;0.00;0.00;;;;;14.87;59.15;99789.59;5062863;28;45880;-69
2021/11/01 11:50:21;;;;;;;;;0.25;0.00;;;;;14.91;58.84;99784.88;5066321;28;45406;-70
2021/11/01 11:52:48;;;;;;;;;2.00;0.00;;;;;14.94;58.88;99787.38;5066677;28;45318;-69
2021/11/01 11:55:26;;;;;;;;;0.00;0.00;;;;;14.95;58.58;99778.31;5064794;28;45456;-70
2021/11/01 11:58:04;;;;;;;;;0.25;0.00;;;;;14.96;58.72;99774.69;5066039;28;45399;-73
2021/11/01 12:00:33;;;;;;;;;0.00;0.00;;;;;15.03;58.28;99777.81;5061602;28;45272;-69
2021/11/01 12:03:12;;;;;;;;;1.50;0.00;;;;;15.05;58.92;99779.47;5065936;28;45272;-70
2021/11/01 12:08:23;;;;;;;;;1.00;0.00;;;;;15.10;58.93;99785.38;5066267;28;45203;-68
2021/11/01 12:13:58;;;;;;;;;0.00;0.00;;;;;15.12;58.32;99772.69;5066388;28;45358;-68
2021/11/01 12:19:10;;;;;;;;;0.50;0.00;;;;;15.17;58.28;99772.41;5065264;28;45478;-68
2021/11/01 12:21:39;;;;;;;;;1.75;0.00;;;;;15.15;57.75;99764.44;5064585;28;45602;-68
2021/11/01 12:24:13;;;;;;;;;0.00;0.00;;;;;15.17;58.03;99769.72;5063878;28;45358;-69
2021/11/01 12:26:43;;;;;;;;;0.00;0.00;;;;;15.15;57.75;99764.44;5066022;28;45335;-69
2021/11/01 12:29:11;;;;;;;;;0.75;0.00;;;;;15.15;57.38;99753.69;5065745;28;46169;-69
2021/11/01 12:31:37;;;;;;;;;2.00;1.00;;;;;15.16;58.03;99755.38;5060267;28;46045;-69
2021/11/01 12:34:12;;;;;;;;;2.00;0.00;;;;;15.19;58.08;99757.03;5065674;28;45276;-69
2021/11/01 12:36:53;;;;;;;;;0.00;0.00;;;;;15.19;58.18;99752.50;5065995;28;45236;-69
2021/11/01 12:39:25;;;;;;;;;0.00;0.00;;;;;15.25;58.31;99753.06;5052493;28;45345;-69
2021/11/01 12:42:18;;;;;;;;;0.00;0.00;;;;;15.26;57.40;99739.50;5063853;28;45601;-69
2021/11/01 12:56:59;;;;;;;;;0.00;0.00;;;;;15.31;56.94;99718.53;5048808;28;45326;-69
2021/11/01 12:58:48;;;;;;;;;0.00;0.00;;;;;15.36;57.22;99707.47;5037605;28;45535;-70
2021/11/01 13:01:16;;;;;;;;;2.00;0.00;;;;;15.38;57.38;99709.09;5061481;28;45466;-70
2021/11/01 13:03:54;;;;;;;;;2.00;0.00;;;;;15.39;57.28;99696.50;5061974;28;45581;-70
2021/11/01 13:06:59;;;;;;;;;0.00;0.00;;;;;15.42;57.05;99712.44;5064319;28;45372;-70
2021/11/01 13:09:26;;;;;;;;;1.00;0.00;;;;;15.38;57.17;99703.72;5061482;28;45401;-69
2021/11/01 13:12:19;;;;;;;;;1.00;1.00;;;;;15.39;57.53;99709.97;5050737;28;46614;-69
2021/11/01 13:17:49;;;;;;;;;0.75;0.00;;;;;15.40;58.08;99686.63;5061864;28;45489;-67
2021/11/01 13:20:20;;;;;;;;;0.00;0.00;;;;;15.40;58.69;99671.34;5061909;28;45286;-70
2021/11/01 13:22:47;;;;;;;;;0.00;0.00;;;;;15.40;58.60;99673.16;5056922;28;45411;-70
2021/11/01 13:25:21;;;;;;;;;3.50;3.25;;;;;15.44;58.50;99678.22;5068282;28;45864;-70
2021/11/01 13:36:05;;;;;;;;;0.00;0.00;;;;;15.50;57.58;99672.44;5061591;28;45394;-70
2021/11/01 13:38:32;;;;;;;;;1.75;0.00;;;;;15.48;57.44;99673.50;5061528;28;45539;-70
2021/11/01 13:40:58;;;;;;;;;1.00;0.25;;;;;15.47;57.70;99671.75;5061428;28;45125;-70
2021/11/01 13:43:28;;;;;;;;;1.00;1.00;;;;;15.47;57.17;99672.66;5061213;28;45229;-74
2021/11/01 13:45:58;;;;;;;;;0.00;0.00;;;;;15.42;57.58;99674.78;5061413;28;45613;-70
2021/11/01 13:48:26;;;;;;;;;0.00;0.00;;;;;15.43;57.60;99663.06;5061363;28;45387;-70
2021/11/01 13:51:08;;;;;;;;;0.50;0.00;;;;;15.42;57.59;99647.03;5061161;28;45496;-70
2021/11/01 13:53:38;;;;;;;;;0.25;0.25;;;;;15.45;57.97;99657.56;5061220;28;47493;-70
2021/11/01 13:56:17;;;;;;;;;0.25;0.25;;;;;15.43;57.60;99655.00;5059677;28;45604;-69
2021/11/01 13:58:58;;;;;;;;;0.75;0.75;;;;;15.46;57.63;99665.53;5043859;28;45245;-69
2021/11/01 14:01:44;;;;;;;;;0.00;0.00;;;;;15.48;58.04;99676.19;5056892;28;45465;-69
2021/11/01 14:26:44;;;;;;;;;1.00;0.00;;;;;15.40;58.99;99708.97;5061215;28;45427;-69
2021/11/01 14:29:22;;;;;;;;;1.00;0.00;;;;;15.19;58.94;99689.81;5060762;28;45350;-69
2021/11/01 14:59:51;;;;;;;;;0.00;0.00;;;;;14.98;59.84;99753.94;5047757;28;45481;-69
2021/11/01 15:14:57;;;;;;;;;0.00;0.00;;;;;14.70;62.00;99739.66;5060250;28;45382;-69
2021/11/01 15:18:18;;;;;;;;;0.00;0.00;;;;;14.70;62.56;99730.72;5059694;28;45231;-69
2021/11/01 15:23:03;;;;;;;;;0.50;0.00;;;;;14.62;62.85;99723.19;5036476;28;45576;-69
2021/11/01 16:16:53;;;;;;;;;0.00;0.00;;;;;14.14;64.46;99722.66;5058756;28;45625;-73
2021/11/01 16:19:18;;;;;;;;;1.00;1.00;;;;;14.06;64.62;99715.94;5060643;28;45310;-69
2021/11/01 16:21:43;;;;;;;;;1.00;1.00;;;;;14.13;64.50;99720.91;5063033;28;45249;-69
2021/11/01 16:24:11;;;;;;;;;1.00;1.00;;;;;14.11;64.38;99721.03;5061956;28;45448;-69
2021/11/01 16:26:37;;;;;;;;;3.50;2.00;;;;;14.05;64.43;99708.00;5062542;28;45454;-68
2021/11/01 16:29:10;;;;;;;;;3.00;3.00;;;;;14.07;64.64;99712.31;5055414;28;45622;-70
2021/11/01 16:39:23;;;;;;;;;2.25;2.00;;;;;14.04;64.85;99717.00;5057003;28;45523;-70
2021/11/01 16:41:48;;;;;;;;;3.25;2.00;;;;;14.01;64.37;99715.38;5062132;28;45251;-70
2021/11/01 16:44:27;;;;;;;;;2.50;2.50;;;;;14.02;64.48;99714.41;5060876;28;48203;-70
2021/11/01 16:46:54;;;;;;;;;2.00;1.00;;;;;14.02;64.17;99718.94;5061816;28;45310;-70
2021/11/01 16:49:21;;;;;;;;;3.00;3.00;;;;;13.98;64.34;99720.06;5061901;28;45566;-70
2021/11/01 16:51:48;;;;;;;;;3.00;3.00;;;;;13.98;64.61;99729.00;5062102;28;45465;-70
2021/11/01 16:54:20;;;;;;;;;4.00;4.00;;;;;13.95;64.82;99737.25;5061964;28;45309;-70
2021/11/01 16:57:09;;;;;;;;;3.00;3.00;;;;;13.92;64.59;99726.69;5061897;28;45655;-70
2021/11/01 16:59:43;;;;;;;;;6.00;5.00;;;;;13.90;64.62;99731.31;5061761;28;45436;-70
2021/11/01 17:04:47;;;;;;;;;4.00;4.00;;;;;13.86;64.56;99741.34;5061534;28;45232;-71
2021/11/01 18:46:14;;;;;;;;;13.25;10.50;;;;;13.35;65.53;99786.47;5060030;28;45705;-70
2021/11/01 18:51:34;;;;;;;;;9.50;6.75;;;;;13.32;65.58;99781.28;5060404;28;45181;-72
2021/11/01 18:54:17;;;;;;;;;9.00;8.00;;;;;13.33;65.41;99791.03;5060060;28;45510;-70
2021/11/01 18:56:44;;;;;;;;;6.50;6.50;;;;;13.29;65.41;99787.63;5060132;28;45500;-70
2021/11/01 18:59:11;;;;;;;;;9.25;9.25;;;;;13.28;65.54;99783.25;5060764;28;45339;-69
2021/11/01 19:01:39;;;;;;;;;10.00;9.00;;;;;13.28;65.56;99787.72;5058180;28;45517;-70
2021/11/01 19:04:22;;;;;;;;;13.00;9.25;;;;;13.28;65.63;99785.94;5060175;28;46100;-69
2021/11/01 19:06:58;;;;;;;;;8.00;8.00;;;;;13.24;65.54;99775.47;5047401;28;45573;-70
2021/11/01 20:05:21;;;;;;;;;19.50;18.50;;;;;13.06;65.94;99774.72;5062941;28;45365;-70
2021/11/01 21:27:00;;;;;;;;;22.50;19.75;;;;;12.98;65.80;99754.59;5061486;28;45431;-69
2021/11/01 21:29:36;;;;;;;;;22.00;21.50;;;;;13.00;65.81;99759.00;5061911;28;45502;-70
2021/11/01 21:32:03;;;;;;;;;24.25;22.75;;;;;13.00;65.84;99753.63;5050571;28;45477;-68
2021/11/01 21:34:35;;;;;;;;;21.75;20.25;;;;;12.93;65.72;99753.13;5048576;28;45197;-67
2021/11/01 21:37:02;;;;;;;;;21.00;20.25;;;;;12.95;65.84;99760.13;5061385;28;46307;-69
2021/11/01 21:39:28;;;;;;;;;15.50;15.25;;;;;12.95;65.54;99743.22;5061101;28;45478;-66
2021/11/01 21:41:54;;;;;;;;;16.25;15.00;;;;;12.95;66.00;99736.03;5061167;28;45489;-67
2021/11/01 21:44:19;;;;;;;;;17.00;15.50;;;;;12.96;65.89;99742.25;5061531;28;45267;-68
2021/11/01 21:46:45;;;;;;;;;15.75;14.25;;;;;12.94;66.03;99736.97;5051693;28;46362;-67
2021/11/01 21:49:10;;;;;;;;;16.50;16.50;;;;;12.95;65.98;99736.03;5048966;28;45797;-67
2021/11/01 21:51:40;;;;;;;;;17.00;16.00;;;;;12.93;66.09;99726.34;5052064;28;45565;-66
2021/11/01 21:54:31;;;;;;;;;19.50;15.75;;;;;12.97;66.16;99736.81;5051645;28;45687;-66
2021/11/01 21:57:08;;;;;;;;;15.50;13.25;;;;;12.94;66.16;99728.94;5046897;28;46760;-67
2021/11/01 22:21:45;;;;;;;;;11.25;6.00;;;;;12.92;66.30;99709.41;5044221;28;45405;-67
2021/11/01 22:24:16;;;;;;;;;7.00;6.00;;;;;12.95;66.32;99711.06;5056691;28;45449;-68
2021/11/01 22:42:44;;;;;;;;;5.00;5.00;;;;;12.93;66.09;99688.84;5054269;28;45788;-68
2021/11/01 22:48:32;;;;;;;;;8.00;5.50;;;;;13.00;66.06;99692.91;5028645;28;45601;-68
2021/11/01 22:55:35;;;;;;;;;6.00;5.75;;;;;12.99;65.79;99675.09;5042904;28;45538;-68
2021/11/01 22:56:48;;;;;;;;;4.00;4.00;;;;;12.97;65.80;99680.53;5060286;28;45465;-69
2021/11/01 22:59:15;;;;;;;;;5.75;4.75;;;;;13.00;65.90;99690.22;5060407;28;45488;-68
2021/11/01 23:01:41;;;;;;;;;7.00;6.25;;;;;12.99;65.79;99683.13;5058545;28;48273;-69
2021/11/01 23:29:11;;;;;;;;;6.75;4.00;;;;;12.95;65.93;99685.13;5060393;28;45308;-69
2021/11/01 23:31:36;;;;;;;;;7.25;5.00;;;;;12.90;66.12;99671.16;5050298;28;45431;-68
2021/11/01 23:34:07;;;;;;;;;4.75;4.25;;;;;12.89;66.03;99669.41;5054906;28;46238;-69
2021/11/01 23:36:33;;;;;;;;;4.00;4.00;;;;;12.90;66.03;99668.47;5059949;28;45460;-69
2021/11/01 23:39:00;;;;;;;;;4.00;4.00;;;;;12.90;65.68;99663.13;5059420;28;45341;-69
2021/11/01 23:41:25;;;;;;;;;4.00;2.25;;;;;12.94;65.83;99671.84;5058596;28;45269;-69
2021/11/01 23:43:51;;;;;;;;;4.50;4.00;;;;;12.94;65.95;99666.47;5059458;28;45567;-69
2021/11/01 23:46:18;;;;;;;;;4.75;4.00;;;;;12.92;65.92;99660.34;5059755;28;45306;-69
2021/11/01 23:48:44;;;;;;;;;2.50;2.50;;;;;12.92;66.17;99665.72;5058106;28;45322;-69
2021/11/01 23:51:10;;;;;;;;;3.00;3.00;;;;;12.92;66.19;99668.38;5059779;28;45375;-69
2021/11/01 23:56:11;;;;;;;;;4.25;3.00;;;;;12.92;66.07;99658.53;5059535;28;45515;-69
2021/11/01 23:58:39;;;;;;;;;5.00;3.25;;;;;12.91;65.75;99659.50;5059391;28;45321;-69
